Time;durP1;ratioP1;P1;durP2;ratioP2;P2;SDS_P1;SDS_P2;PMS_P1;PMS_P2;Temp;Humidity;BMP_temperature;BMP_pressure;BME280_temperature;BME280_humidity;BME280_pressure;Samples;Min_cycle;Max_cycle;Signal;HPM_P1;HPM_P2
2022/01/01 00:01:38;;;;;;;39.13;13.07;;;11.30;66.50;;;;;;6178938;28;20071;-74
2022/01/01 00:04:40;;;;;;;28.98;12.55;;;11.30;66.60;;;;;;6168042;28;20172;-75
2022/01/01 00:07:41;;;;;;;29.05;13.48;;;11.30;66.60;;;;;;6165626;28;20038;-75
2022/01/01 00:10:41;;;;;;;37.95;13.43;;;11.20;67.40;;;;;;6160993;28;20074;-73
2022/01/01 00:13:42;;;;;;;30.65;13.68;;;11.20;66.70;;;;;;6150246;28;20463;-74
2022/01/01 00:16:44;;;;;;;30.48;14.13;;;11.20;66.70;;;;;;6172043;28;20524;-75
2022/01/01 00:19:45;;;;;;;25.30;11.20;;;11.20;66.80;;;;;;6189150;28;20470;-75
2022/01/01 00:22:46;;;;;;;25.13;10.80;;;11.20;66.90;;;;;;6182856;28;20029;-76
2022/01/01 00:25:47;;;;;;;20.02;8.95;;;11.20;67.00;;;;;;6196820;28;20036;-75
2022/01/01 00:28:48;;;;;;;25.83;9.93;;;11.20;67.00;;;;;;6199252;28;20041;-74
2022/01/01 00:31:49;;;;;;;34.28;10.25;;;11.20;67.00;;;;;;6180236;28;20478;-74
2022/01/01 00:34:50;;;;;;;27.52;10.25;;;11.20;66.90;;;;;;6199550;28;20044;-75
2022/01/01 00:37:51;;;;;;;25.77;9.13;;;11.20;66.90;;;;;;6201597;28;20714;-75
2022/01/01 00:40:53;;;;;;;19.15;9.93;;;11.20;66.90;;;;;;6160866;28;20088;-75
2022/01/01 00:43:56;;;;;;;17.42;9.00;;;11.20;66.70;;;;;;6162274;28;20154;-75
2022/01/01 00:46:57;;;;;;;22.58;10.02;;;11.20;66.70;;;;;;6155012;28;20045;-75
2022/01/01 00:49:58;;;;;;;29.88;10.60;;;11.20;66.80;;;;;;6151966;28;20464;-75
2022/01/01 00:53:00;;;;;;;21.25;9.73;;;11.20;66.90;;;;;;6165236;28;20145;-76
2022/01/01 00:56:01;;;;;;;25.73;10.25;;;11.20;66.90;;;;;;6159989;28;20049;-75
2022/01/01 00:59:02;;;;;;;22.80;10.25;;;11.20;66.80;;;;;;6192999;28;20033;-74
2022/01/01 01:02:03;;;;;;;28.73;9.82;;;11.20;66.60;;;;;;6192546;28;20353;-75
2022/01/01 01:05:04;;;;;;;22.05;10.35;;;11.10;66.50;;;;;;6194330;28;20034;-75
2022/01/01 01:08:10;;;;;;;21.75;10.68;;;11.00;66.40;;;;;;6198984;28;20040;-75
2022/01/01 01:11:12;;;;;;;20.42;9.43;;;11.00;66.80;;;;;;6204895;28;20025;-75
2022/01/01 01:14:20;;;;;;;20.90;9.23;;;10.90;66.70;;;;;;6192069;28;20040;-74
2022/01/01 01:17:21;;;;;;;21.35;9.50;;;10.90;66.90;;;;;;6204470;28;20044;-74
2022/01/01 01:20:23;;;;;;;23.17;9.75;;;10.80;66.80;;;;;;6198598;28;20079;-75
2022/01/01 01:23:24;;;;;;;32.70;10.65;;;10.80;66.90;;;;;;6193459;28;20065;-74
2022/01/01 01:26:28;;;;;;;29.70;10.63;;;10.70;67.10;;;;;;6201545;28;20041;-75
2022/01/01 01:29:34;;;;;;;20.95;9.48;;;10.70;67.30;;;;;;6202699;28;20043;-74
2022/01/01 01:32:36;;;;;;;21.15;9.63;;;10.60;67.40;;;;;;6167142;28;20124;-74
2022/01/01 01:35:38;;;;;;;24.10;9.55;;;10.60;67.50;;;;;;6192892;28;20041;-74
2022/01/01 01:38:39;;;;;;;22.90;9.38;;;10.60;67.60;;;;;;6174760;28;20544;-74
2022/01/01 01:41:43;;;;;;;21.08;9.57;;;10.60;67.70;;;;;;6184814;28;20037;-74
2022/01/01 01:44:47;;;;;;;24.38;8.90;;;10.60;67.70;;;;;;6166822;28;20136;-74
2022/01/01 01:47:50;;;;;;;22.42;9.90;;;10.60;67.80;;;;;;6183567;28;20090;-75
2022/01/01 01:50:51;;;;;;;28.50;9.85;;;10.60;67.60;;;;;;6194798;28;20037;-74
2022/01/01 01:53:52;;;;;;;22.23;9.07;;;10.50;67.60;;;;;;6208207;28;20103;-74
2022/01/01 01:56:53;;;;;;;18.42;9.50;;;10.60;67.60;;;;;;6211577;28;20108;-74
2022/01/01 01:59:54;;;;;;;18.33;9.18;;;10.50;67.40;;;;;;6213890;28;20104;-74
2022/01/01 02:02:55;;;;;;;23.10;9.50;;;10.50;67.40;;;;;;6217601;28;20041;-74
2022/01/01 02:05:57;;;;;;;20.30;8.10;;;10.50;67.60;;;;;;6227309;28;20036;-74
2022/01/01 02:08:59;;;;;;;21.17;9.30;;;10.40;67.60;;;;;;6212465;28;20037;-74
2022/01/01 02:12:03;;;;;;;23.63;10.40;;;10.40;67.60;;;;;;6212106;28;20067;-74
2022/01/01 02:15:12;;;;;;;23.50;9.35;;;10.30;67.60;;;;;;6223950;28;20079;-74
2022/01/01 02:18:13;;;;;;;20.80;9.23;;;10.30;67.60;;;;;;6176537;28;20060;-74
2022/01/01 02:21:14;;;;;;;24.98;9.10;;;10.30;67.60;;;;;;6176190;28;20152;-75
2022/01/01 02:24:16;;;;;;;30.00;9.43;;;10.20;67.60;;;;;;6183182;28;20117;-74
2022/01/01 02:27:17;;;;;;;30.25;8.93;;;10.10;67.70;;;;;;6167338;28;20363;-74
2022/01/01 02:30:18;;;;;;;21.60;9.35;;;10.10;67.80;;;;;;6173518;28;20041;-75
2022/01/01 02:33:20;;;;;;;23.15;8.95;;;10.00;68.00;;;;;;6163779;28;20037;-74
2022/01/01 02:36:35;;;;;;;18.52;9.00;;;10.00;68.10;;;;;;6184260;28;20045;-75
2022/01/01 02:39:36;;;;;;;20.20;8.55;;;9.90;68.20;;;;;;6176202;28;20050;-75
2022/01/01 02:42:39;;;;;;;20.75;8.80;;;9.90;68.20;;;;;;6182927;28;20068;-76
2022/01/01 02:45:40;;;;;;;18.63;8.80;;;9.90;68.70;;;;;;6190095;28;20117;-76
2022/01/01 02:48:44;;;;;;;26.55;9.15;;;9.80;68.20;;;;;;6185584;28;20033;-74
2022/01/01 02:51:45;;;;;;;19.02;9.25;;;9.80;68.30;;;;;;6196433;28;20029;-74
2022/01/01 02:54:46;;;;;;;17.63;8.10;;;9.70;68.20;;;;;;6206378;28;20036;-74
2022/01/01 02:57:47;;;;;;;24.05;8.02;;;9.90;68.40;;;;;;6191482;28;20045;-74
2022/01/01 03:00:48;;;;;;;15.40;7.30;;;9.70;68.40;;;;;;6215317;28;20041;-73
2022/01/01 03:03:50;;;;;;;17.88;8.25;;;9.50;68.40;;;;;;6197379;28;20058;-74
2022/01/01 03:06:55;;;;;;;20.30;8.50;;;9.70;68.60;;;;;;6197186;28;20480;-74
2022/01/01 03:09:56;;;;;;;11.90;6.45;;;9.60;68.60;;;;;;6199532;28;20036;-74
2022/01/01 03:12:57;;;;;;;21.77;7.20;;;9.60;68.70;;;;;;6196748;28;20038;-74
2022/01/01 03:15:58;;;;;;;24.27;8.15;;;9.60;68.70;;;;;;6194593;28;20458;-74
2022/01/01 03:18:59;;;;;;;22.58;8.00;;;9.60;68.60;;;;;;6198605;28;20030;-74
2022/01/01 03:22:01;;;;;;;15.23;7.18;;;9.60;68.40;;;;;;6199120;28;20447;-74
2022/01/01 03:25:03;;;;;;;17.35;6.50;;;9.50;68.40;;;;;;6191426;28;20040;-74
2022/01/01 03:28:05;;;;;;;15.85;7.40;;;9.50;68.50;;;;;;6197939;28;20041;-74
2022/01/01 03:31:07;;;;;;;20.45;8.27;;;9.60;68.70;;;;;;6180615;28;20071;-74
2022/01/01 03:34:08;;;;;;;21.50;7.95;;;9.50;68.70;;;;;;6191751;28;20043;-74
2022/01/01 03:37:09;;;;;;;17.92;7.10;;;9.50;68.70;;;;;;6181321;28;20577;-74
2022/01/01 03:40:11;;;;;;;26.20;7.32;;;9.50;68.70;;;;;;6192688;28;20045;-74
2022/01/01 03:43:12;;;;;;;23.92;8.68;;;9.60;68.60;;;;;;6195056;28;20065;-73
2022/01/01 03:46:19;;;;;;;20.27;7.93;;;9.60;68.40;;;;;;6194089;28;20037;-73
2022/01/01 03:49:23;;;;;;;14.15;6.55;;;9.60;68.40;;;;;;6192113;28;20064;-74
2022/01/01 03:52:24;;;;;;;14.70;6.75;;;9.70;68.40;;;;;;6196629;28;20029;-74
2022/01/01 03:55:26;;;;;;;16.23;7.82;;;9.70;68.10;;;;;;6193096;28;20372;-74
2022/01/01 03:58:27;;;;;;;17.75;7.47;;;9.70;68.00;;;;;;6192530;28;20766;-74
2022/01/01 04:01:28;;;;;;;18.75;8.13;;;9.60;67.90;;;;;;6196358;28;20033;-74
2022/01/01 04:04:29;;;;;;;15.07;6.90;;;9.60;68.00;;;;;;6181705;28;20050;-75
2022/01/01 04:07:32;;;;;;;12.90;6.72;;;9.60;68.00;;;;;;6184535;28;20075;-74
2022/01/01 04:10:35;;;;;;;20.63;6.97;;;9.60;68.10;;;;;;6182079;28;21005;-74
2022/01/01 04:13:36;;;;;;;18.73;7.50;;;9.60;68.10;;;;;;6182013;28;20041;-74
2022/01/01 04:16:37;;;;;;;15.65;6.60;;;9.80;68.30;;;;;;6191057;28;20045;-74
2022/01/01 04:19:41;;;;;;;15.25;6.95;;;9.70;68.90;;;;;;6182623;28;20447;-74
2022/01/01 04:22:42;;;;;;;17.23;6.25;;;9.70;68.00;;;;;;6177029;28;20367;-74
2022/01/01 04:25:44;;;;;;;13.30;6.30;;;9.70;68.00;;;;;;6181226;28;20038;-74
2022/01/01 04:28:45;;;;;;;12.18;6.40;;;9.80;67.90;;;;;;6180229;28;20029;-74
2022/01/01 04:31:46;;;;;;;19.08;6.38;;;9.80;67.60;;;;;;6176503;28;20175;-74
2022/01/01 04:34:47;;;;;;;17.77;5.95;;;9.90;67.50;;;;;;6183618;28;20526;-74
2022/01/01 04:37:49;;;;;;;15.77;5.15;;;9.90;67.30;;;;;;6169523;28;20057;-74
2022/01/01 04:40:50;;;;;;;13.23;5.28;;;9.90;67.20;;;;;;6174513;28;20156;-74
2022/01/01 04:43:51;;;;;;;14.25;5.20;;;10.00;67.30;;;;;;6181464;28;20107;-75
2022/01/01 04:46:52;;;;;;;11.68;5.07;;;10.00;66.90;;;;;;6179475;28;20132;-74
2022/01/01 04:49:53;;;;;;;9.52;4.18;;;10.00;66.60;;;;;;6180048;28;20080;-74
2022/01/01 04:52:56;;;;;;;6.63;3.95;;;10.10;66.60;;;;;;6173788;28;20041;-74
2022/01/01 04:55:59;;;;;;;15.65;4.68;;;10.10;66.40;;;;;;6170609;28;20044;-73
2022/01/01 04:59:03;;;;;;;10.20;5.35;;;10.10;66.20;;;;;;6176133;28;20113;-74
2022/01/01 05:02:04;;;;;;;13.48;5.78;;;10.10;66.10;;;;;;6184665;28;21436;-75
2022/01/01 05:05:07;;;;;;;15.40;5.95;;;10.10;65.70;;;;;;6179268;28;21352;-73
2022/01/01 05:08:09;;;;;;;15.75;6.50;;;10.10;65.50;;;;;;6182091;28;20068;-74
2022/01/01 05:11:10;;;;;;;16.63;6.35;;;10.10;65.50;;;;;;6180669;28;20033;-74
2022/01/01 05:14:11;;;;;;;14.30;6.20;;;10.10;65.50;;;;;;6186938;28;20061;-74
2022/01/01 05:17:14;;;;;;;12.98;6.03;;;10.10;65.40;;;;;;6177270;28;20037;-74
2022/01/01 05:20:15;;;;;;;15.23;5.65;;;9.90;65.10;;;;;;6192496;28;20671;-74
2022/01/01 05:23:16;;;;;;;12.20;6.15;;;9.90;65.40;;;;;;6168522;28;20060;-75
2022/01/01 05:26:17;;;;;;;17.17;5.97;;;9.70;65.60;;;;;;6190514;28;20160;-74
2022/01/01 05:29:18;;;;;;;14.85;6.60;;;9.60;65.90;;;;;;6185117;28;23133;-74
2022/01/01 05:32:19;;;;;;;12.82;5.50;;;9.60;66.10;;;;;;6188584;28;20057;-74
2022/01/01 05:35:20;;;;;;;14.27;6.10;;;9.60;66.10;;;;;;6185212;28;20076;-75
2022/01/01 05:38:22;;;;;;;12.23;5.63;;;9.50;66.10;;;;;;6174368;28;20672;-75
2022/01/01 05:41:23;;;;;;;17.33;6.30;;;9.40;66.30;;;;;;6182563;28;20068;-76
2022/01/01 05:44:24;;;;;;;17.10;7.03;;;9.30;66.40;;;;;;6180064;28;20142;-75
2022/01/01 05:47:26;;;;;;;13.52;6.53;;;9.30;66.50;;;;;;6194229;28;20071;-75
2022/01/01 05:50:26;;;;;;;16.20;6.22;;;9.30;66.70;;;;;;6192760;28;20091;-75
2022/01/01 05:53:27;;;;;;;16.85;5.93;;;9.20;66.90;;;;;;6201138;28;20116;-76
2022/01/01 05:56:29;;;;;;;16.10;5.97;;;9.20;66.70;;;;;;6200638;28;20426;-74
2022/01/01 05:59:30;;;;;;;12.68;5.78;;;9.10;66.90;;;;;;6185211;28;20060;-74
2022/01/01 06:02:31;;;;;;;13.68;6.40;;;9.10;67.00;;;;;;6206734;28;20033;-74
2022/01/01 06:05:32;;;;;;;15.48;6.10;;;9.00;67.00;;;;;;6209218;28;20088;-74
2022/01/01 06:08:33;;;;;;;15.45;6.03;;;9.00;67.20;;;;;;6210631;28;20044;-74
2022/01/01 06:11:34;;;;;;;12.27;6.28;;;9.00;67.30;;;;;;6202275;28;20470;-74
2022/01/01 06:14:35;;;;;;;16.20;5.80;;;9.00;67.40;;;;;;6192409;28;20033;-74
2022/01/01 06:17:36;;;;;;;13.25;5.85;;;8.90;67.60;;;;;;6203220;28;20054;-74
2022/01/01 06:20:37;;;;;;;23.55;6.28;;;8.90;67.70;;;;;;6190492;28;20628;-74
2022/01/01 06:23:40;;;;;;;16.10;5.03;;;8.90;67.70;;;;;;6191199;28;20717;-74
2022/01/01 06:26:40;;;;;;;21.42;6.72;;;8.90;67.80;;;;;;6207434;28;20042;-75
2022/01/01 06:29:42;;;;;;;10.45;5.38;;;9.00;67.70;;;;;;6195689;28;20791;-74
2022/01/01 06:32:43;;;;;;;14.82;6.38;;;8.90;67.60;;;;;;6188473;28;20543;-74
2022/01/01 06:35:46;;;;;;;16.90;7.05;;;8.90;67.50;;;;;;6193471;28;20041;-74
2022/01/01 06:38:47;;;;;;;15.55;6.68;;;8.80;67.50;;;;;;6167233;28;20052;-74
2022/01/01 06:41:48;;;;;;;12.45;5.53;;;8.80;67.40;;;;;;6197584;28;20040;-74
2022/01/01 06:44:49;;;;;;;9.80;5.30;;;8.70;67.50;;;;;;6196995;28;20044;-75
2022/01/01 06:47:50;;;;;;;16.80;6.45;;;8.70;67.60;;;;;;6190783;28;20043;-74
2022/01/01 06:50:52;;;;;;;12.70;5.72;;;8.60;67.60;;;;;;6195902;28;20041;-74
2022/01/01 06:53:53;;;;;;;14.60;6.30;;;8.50;67.60;;;;;;6204437;28;20156;-75
2022/01/01 06:56:54;;;;;;;20.60;6.32;;;8.50;67.80;;;;;;6205089;28;20041;-74
2022/01/01 06:59:55;;;;;;;15.35;6.28;;;8.50;68.00;;;;;;6213253;28;20069;-75
2022/01/01 07:02:56;;;;;;;13.27;6.43;;;8.40;68.10;;;;;;6210114;28;20056;-75
2022/01/01 07:05:57;;;;;;;19.92;6.75;;;8.50;68.30;;;;;;6208343;28;20089;-75
2022/01/01 07:08:58;;;;;;;14.15;6.43;;;8.50;68.20;;;;;;6211005;28;20042;-75
2022/01/01 07:11:59;;;;;;;10.82;5.80;;;8.50;68.30;;;;;;6188313;28;20049;-75
2022/01/01 07:15:01;;;;;;;13.65;5.68;;;8.60;68.20;;;;;;6195330;28;20426;-74
2022/01/01 07:18:02;;;;;;;11.90;4.47;;;8.60;68.20;;;;;;6196795;28;20084;-74
2022/01/01 07:21:03;;;;;;;12.07;5.32;;;8.60;68.20;;;;;;6189143;28;20049;-75
2022/01/01 07:24:04;;;;;;;8.23;4.25;;;8.60;68.10;;;;;;6192091;28;20036;-75
2022/01/01 07:27:05;;;;;;;11.45;5.15;;;8.60;68.00;;;;;;6188328;28;20048;-74
2022/01/01 07:30:08;;;;;;;14.15;6.40;;;8.60;68.10;;;;;;6191642;28;20041;-74
2022/01/01 07:33:12;;;;;;;16.50;6.78;;;8.60;68.00;;;;;;6181617;28;20106;-74
2022/01/01 07:36:14;;;;;;;13.55;7.22;;;8.60;67.90;;;;;;6185869;28;20076;-74
2022/01/01 07:39:15;;;;;;;17.75;6.38;;;8.60;67.90;;;;;;6186885;28;23183;-76
2022/01/01 07:42:16;;;;;;;14.98;6.88;;;8.70;68.00;;;;;;6141578;28;20038;-74
2022/01/01 07:45:17;;;;;;;16.23;6.88;;;8.70;67.90;;;;;;6182506;28;20090;-74
2022/01/01 07:48:18;;;;;;;19.98;6.35;;;8.90;67.80;;;;;;6173876;28;20037;-74
2022/01/01 07:51:19;;;;;;;15.75;6.45;;;8.80;67.60;;;;;;6181685;28;20115;-74
2022/01/01 07:54:20;;;;;;;12.98;6.22;;;8.80;67.60;;;;;;6190006;28;20061;-74
2022/01/01 07:57:21;;;;;;;11.73;5.45;;;8.70;67.50;;;;;;6157360;28;20034;-74
2022/01/01 08:00:22;;;;;;;11.82;5.30;;;8.80;67.60;;;;;;6172082;28;20455;-74
2022/01/01 08:03:23;;;;;;;19.08;6.35;;;8.80;67.60;;;;;;6179572;28;20455;-74
2022/01/01 08:06:25;;;;;;;15.63;5.63;;;8.80;67.40;;;;;;6179807;28;20044;-74
2022/01/01 08:09:26;;;;;;;14.85;5.93;;;8.80;67.20;;;;;;6183116;28;20420;-74
2022/01/01 08:12:27;;;;;;;19.70;5.70;;;8.80;67.30;;;;;;6182185;28;20510;-75
2022/01/01 08:15:28;;;;;;;18.30;4.72;;;8.80;67.50;;;;;;6185063;28;20044;-75
2022/01/01 08:18:29;;;;;;;18.80;5.43;;;8.90;67.60;;;;;;6159839;28;20538;-75
2022/01/01 08:21:30;;;;;;;12.63;4.55;;;9.00;67.50;;;;;;6148932;28;20042;-75
2022/01/01 08:24:31;;;;;;;7.88;4.47;;;9.00;67.30;;;;;;6156788;28;20053;-74
2022/01/01 08:27:33;;;;;;;10.35;4.85;;;9.00;67.10;;;;;;6165121;28;23696;-74
2022/01/01 08:30:35;;;;;;;10.35;4.68;;;9.10;67.10;;;;;;6152425;28;20115;-74
2022/01/01 08:33:36;;;;;;;11.25;5.70;;;9.10;67.00;;;;;;6176680;28;20736;-74
2022/01/01 08:36:37;;;;;;;14.60;5.35;;;9.10;66.70;;;;;;6184149;28;20597;-74
2022/01/01 08:39:38;;;;;;;12.93;5.53;;;9.10;66.60;;;;;;6183877;28;20045;-74
2022/01/01 08:42:39;;;;;;;11.38;5.15;;;9.10;66.40;;;;;;6165168;28;20542;-74
2022/01/01 08:45:41;;;;;;;11.60;5.18;;;9.10;66.40;;;;;;6174168;28;20044;-75
2022/01/01 08:48:42;;;;;;;19.65;6.72;;;9.10;66.30;;;;;;6179225;28;20116;-74
2022/01/01 08:51:44;;;;;;;11.50;5.20;;;9.10;66.50;;;;;;6180546;28;20025;-76
2022/01/01 08:54:45;;;;;;;15.07;6.53;;;9.10;66.20;;;;;;6179550;28;20171;-76
2022/01/01 08:57:46;;;;;;;16.40;5.93;;;9.10;66.00;;;;;;6180957;28;20045;-74
2022/01/01 09:00:47;;;;;;;10.90;5.88;;;9.10;65.80;;;;;;6176407;28;20040;-74
2022/01/01 09:03:48;;;;;;;16.88;6.80;;;9.20;65.90;;;;;;6159938;28;20044;-74
2022/01/01 09:06:49;;;;;;;12.05;5.13;;;9.20;65.90;;;;;;6188188;28;20045;-75
2022/01/01 09:09:51;;;;;;;13.57;5.35;;;9.30;65.90;;;;;;6192330;28;20034;-75
2022/01/01 09:12:52;;;;;;;10.25;5.05;;;9.40;65.70;;;;;;6210613;28;21009;-74
2022/01/01 09:15:53;;;;;;;12.95;5.05;;;9.50;65.50;;;;;;6191164;28;20045;-75
2022/01/01 09:18:54;;;;;;;14.75;5.72;;;9.60;65.30;;;;;;6206832;28;20536;-74
2022/01/01 09:21:55;;;;;;;14.90;7.03;;;9.60;65.10;;;;;;6203595;28;20103;-74
2022/01/01 09:24:56;;;;;;;11.95;5.40;;;9.70;65.00;;;;;;6217292;28;20041;-74
2022/01/01 09:27:58;;;;;;;12.88;5.28;;;9.80;64.70;;;;;;6210077;28;20045;-76
2022/01/01 09:31:01;;;;;;;12.15;5.95;;;9.90;64.80;;;;;;6204024;28;20443;-74
2022/01/01 09:34:03;;;;;;;11.52;4.60;;;10.00;64.40;;;;;;6166735;28;20034;-75
2022/01/01 09:37:05;;;;;;;21.25;5.50;;;10.10;64.20;;;;;;6154591;28;20089;-75
2022/01/01 09:40:07;;;;;;;14.05;5.18;;;10.20;64.10;;;;;;6206985;28;20037;-74
2022/01/01 09:43:11;;;;;;;13.43;5.63;;;10.30;64.00;;;;;;6207549;28;20056;-74
2022/01/01 09:46:15;;;;;;;12.65;5.55;;;10.30;63.70;;;;;;6212996;28;20043;-74
2022/01/01 09:49:17;;;;;;;12.73;5.05;;;10.40;63.70;;;;;;6197631;28;20036;-75
2022/01/01 09:52:19;;;;;;;11.98;5.15;;;10.50;63.70;;;;;;6220870;28;20056;-75
2022/01/01 09:55:20;;;;;;;16.83;6.20;;;10.50;63.40;;;;;;6216779;28;20081;-76
2022/01/01 09:58:27;;;;;;;14.82;6.82;;;10.50;63.10;;;;;;6209168;28;20057;-75
2022/01/01 10:01:28;;;;;;;18.58;6.22;;;10.60;62.80;;;;;;6200032;28;20041;-76
2022/01/01 10:04:41;;;;;;;17.35;6.80;;;10.70;63.10;;;;;;6210113;28;20057;-75
2022/01/01 10:07:42;;;;;;;14.85;6.05;;;10.90;63.30;;;;;;6214190;28;20050;-75
2022/01/01 10:10:43;;;;;;;12.15;5.80;;;11.20;62.60;;;;;;6221285;28;20081;-74
2022/01/01 10:13:45;;;;;;;13.77;6.03;;;11.50;61.40;;;;;;6217133;28;20060;-74
2022/01/01 10:16:46;;;;;;;17.58;6.57;;;11.60;60.50;;;;;;6217471;28;20361;-74
2022/01/01 10:19:52;;;;;;;12.80;4.95;;;11.80;60.30;;;;;;6211994;28;20099;-75
2022/01/01 10:22:53;;;;;;;15.05;5.93;;;12.00;59.80;;;;;;6217354;28;20037;-75
2022/01/01 10:29:32;;;;;;;13.02;6.10;;;12.30;59.70;;;;;;6206568;28;20033;-75
2022/01/01 10:32:33;;;;;;;14.68;6.78;;;12.60;59.60;;;;;;6208136;28;20140;-75
2022/01/01 10:35:40;;;;;;;13.60;6.05;;;12.80;59.30;;;;;;6215541;28;20080;-74
2022/01/01 10:38:44;;;;;;;12.88;6.50;;;13.10;58.70;;;;;;6204429;28;20191;-74
2022/01/01 10:41:47;;;;;;;14.38;6.22;;;13.40;58.40;;;;;;6212889;28;20557;-75
2022/01/01 10:44:51;;;;;;;11.05;5.65;;;13.70;57.70;;;;;;6196972;28;20040;-75
2022/01/01 10:48:04;;;;;;;10.35;5.38;;;13.90;57.00;;;;;;6177198;28;20045;-75
2022/01/01 10:51:09;;;;;;;8.90;4.93;;;14.20;56.20;;;;;;6196261;28;20049;-75
2022/01/01 10:54:10;;;;;;;18.58;8.85;;;14.50;55.30;;;;;;6187707;28;20033;-75
2022/01/01 10:57:11;;;;;;;22.70;9.13;;;14.80;54.10;;;;;;6206707;28;20742;-76
2022/01/01 11:00:21;;;;;;;15.73;7.88;;;15.10;53.80;;;;;;6199423;28;20041;-74
2022/01/01 11:03:23;;;;;;;12.00;5.85;;;15.40;52.50;;;;;;6203877;28;20090;-75
2022/01/01 11:06:24;;;;;;;10.00;4.72;;;15.90;51.70;;;;;;6200379;28;23722;-74
2022/01/01 11:09:26;;;;;;;22.00;9.13;;;16.30;49.80;;;;;;6201089;28;20041;-76
2022/01/01 11:12:29;;;;;;;22.52;8.65;;;16.70;48.90;;;;;;6198304;28;20044;-74
2022/01/01 11:15:31;;;;;;;26.45;12.02;;;17.10;48.40;;;;;;6203687;28;20502;-74
2022/01/01 11:18:33;;;;;;;38.83;16.05;;;17.60;47.00;;;;;;6200492;28;20127;-75
2022/01/01 11:21:34;;;;;;;24.15;10.70;;;18.10;45.70;;;;;;6189514;28;20044;-75
2022/01/01 11:24:38;;;;;;;12.82;5.95;;;18.40;44.90;;;;;;6200185;28;20033;-75
2022/01/01 11:27:40;;;;;;;15.13;6.88;;;18.80;43.80;;;;;;6173991;28;20542;-75
2022/01/01 11:31:07;;;;;;;14.25;6.07;;;18.90;43.00;;;;;;6169004;28;20100;-75
2022/01/01 11:34:09;;;;;;;7.90;4.60;;;19.00;42.50;;;;;;6205716;28;20041;-75
2022/01/01 11:37:14;;;;;;;12.55;5.93;;;19.20;42.00;;;;;;6208345;28;20561;-75
2022/01/01 11:40:16;;;;;;;9.40;5.20;;;19.30;41.80;;;;;;6216008;28;20532;-75
2022/01/01 11:43:46;;;;;;;27.00;12.65;;;19.40;41.50;;;;;;6214820;28;20029;-75
2022/01/01 11:47:04;;;;;;;41.67;17.13;;;19.50;41.30;;;;;;6213333;28;20035;-75
2022/01/01 11:50:06;;;;;;;25.73;10.70;;;19.10;42.50;;;;;;6211716;28;20030;-75
2022/01/01 11:53:32;;;;;;;42.40;14.07;;;18.70;43.20;;;;;;6203152;28;20057;-75
2022/01/01 11:57:05;;;;;;;18.25;8.15;;;18.20;43.90;;;;;;6210559;28;20044;-75
2022/01/01 12:00:12;;;;;;;13.98;5.68;;;17.80;44.30;;;;;;6201825;28;20369;-75
2022/01/01 12:03:14;;;;;;;20.45;7.80;;;17.40;44.80;;;;;;6211201;28;20064;-75
2022/01/01 12:06:15;;;;;;;26.00;12.32;;;17.10;45.50;;;;;;6210848;28;20042;-75
2022/01/01 12:09:16;;;;;;;9.20;5.45;;;16.80;45.30;;;;;;6192693;28;20114;-75
2022/01/01 12:12:34;;;;;;;17.27;6.72;;;16.40;45.90;;;;;;6212657;28;22063;-75
2022/01/01 12:15:50;;;;;;;14.52;7.07;;;16.20;46.90;;;;;;6208611;28;20033;-76
2022/01/01 12:19:03;;;;;;;14.10;6.32;;;15.90;47.00;;;;;;6178419;28;20371;-75
2022/01/01 12:22:07;;;;;;;17.05;8.43;;;15.70;47.70;;;;;;6203283;28;20037;-75
2022/01/01 12:25:09;;;;;;;20.90;8.43;;;15.60;48.20;;;;;;6207659;28;20073;-74
2022/01/01 12:28:32;;;;;;;33.50;14.95;;;15.50;48.50;;;;;;6208597;28;20048;-75
2022/01/01 12:31:33;;;;;;;28.90;11.10;;;15.50;48.70;;;;;;6207928;28;20124;-74
2022/01/01 12:34:36;;;;;;;14.77;7.85;;;15.50;48.70;;;;;;6209564;28;20048;-74
2022/01/01 12:37:38;;;;;;;18.73;7.03;;;15.40;48.90;;;;;;6213732;28;20131;-75
2022/01/01 12:41:01;;;;;;;13.73;6.07;;;15.40;49.10;;;;;;6214845;28;20040;-74
2022/01/01 12:44:09;;;;;;;9.90;5.45;;;15.40;49.30;;;;;;6208679;28;20500;-76
2022/01/01 12:47:14;;;;;;;10.70;4.47;;;15.30;49.00;;;;;;6200433;28;20397;-76
2022/01/01 12:50:15;;;;;;;11.70;5.25;;;15.20;49.10;;;;;;6191280;28;20046;-75
2022/01/01 12:53:17;;;;;;;17.35;5.80;;;15.20;49.40;;;;;;6195041;28;20052;-74
2022/01/01 12:56:20;;;;;;;34.60;12.18;;;15.20;49.50;;;;;;6196561;28;20441;-76
2022/01/01 12:59:21;;;;;;;21.50;9.75;;;15.20;49.60;;;;;;6175867;28;20374;-75
2022/01/01 13:02:23;;;;;;;13.88;5.93;;;15.20;49.80;;;;;;6196988;28;20053;-75
2022/01/01 13:05:24;;;;;;;6.13;3.45;;;15.30;49.80;;;;;;6183914;28;20036;-75
2022/01/01 13:08:26;;;;;;;10.18;4.13;;;15.30;49.80;;;;;;6183948;28;20029;-75
2022/01/01 13:11:28;;;;;;;6.78;4.18;;;15.30;49.60;;;;;;6178521;28;20030;-75
2022/01/01 13:14:31;;;;;;;13.85;5.32;;;15.40;49.50;;;;;;6191014;28;20037;-76
2022/01/01 13:17:32;;;;;;;18.52;8.18;;;15.40;49.40;;;;;;6170525;28;20044;-75
2022/01/01 13:20:33;;;;;;;17.23;7.85;;;15.40;49.40;;;;;;6183457;28;20941;-75
2022/01/01 13:23:35;;;;;;;6.72;4.30;;;15.40;49.50;;;;;;6186969;28;20508;-75
2022/01/01 13:26:36;;;;;;;13.90;5.47;;;15.40;49.30;;;;;;6171421;28;20045;-75
2022/01/01 13:29:40;;;;;;;5.40;3.13;;;15.40;49.30;;;;;;6177536;28;20036;-75
2022/01/01 13:32:41;;;;;;;6.20;3.47;;;15.40;49.20;;;;;;6168815;28;20478;-75
2022/01/01 13:35:51;;;;;;;6.65;2.90;;;15.50;49.30;;;;;;6170495;28;20045;-74
2022/01/01 13:38:54;;;;;;;6.47;3.03;;;15.50;49.30;;;;;;6173797;28;24441;-74
2022/01/01 13:41:58;;;;;;;12.88;3.53;;;15.50;49.20;;;;;;6178642;28;20046;-75
2022/01/01 13:45:04;;;;;;;8.50;3.20;;;15.50;49.10;;;;;;6175365;28;20053;-74
2022/01/01 13:48:10;;;;;;;12.85;4.45;;;15.50;48.90;;;;;;6164686;28;20041;-75
2022/01/01 13:51:12;;;;;;;7.80;3.17;;;15.50;48.80;;;;;;6173425;28;20041;-75
2022/01/01 13:54:14;;;;;;;10.15;3.88;;;15.60;49.00;;;;;;6171619;28;20041;-74
2022/01/01 13:57:16;;;;;;;6.45;3.45;;;15.60;49.10;;;;;;6180484;28;20052;-74
2022/01/01 14:00:17;;;;;;;6.28;3.20;;;15.60;49.30;;;;;;6174536;28;20140;-74
2022/01/01 14:03:21;;;;;;;10.40;3.88;;;15.60;49.40;;;;;;6176801;28;20072;-74
2022/01/01 14:06:24;;;;;;;9.80;4.38;;;15.60;49.50;;;;;;6177922;28;20625;-74
2022/01/01 14:09:25;;;;;;;11.30;4.32;;;15.60;49.50;;;;;;6180066;28;20033;-75
2022/01/01 14:12:38;;;;;;;19.98;7.38;;;15.60;49.50;;;;;;6186436;28;24104;-74
2022/01/01 14:15:39;;;;;;;21.02;6.43;;;15.60;49.60;;;;;;6190638;28;20057;-75
2022/01/01 14:18:41;;;;;;;20.05;6.47;;;15.60;49.70;;;;;;6189109;28;22945;-74
2022/01/01 14:21:43;;;;;;;12.90;4.38;;;15.70;49.70;;;;;;6182328;28;20048;-74
2022/01/01 14:24:52;;;;;;;22.55;5.85;;;15.70;49.80;;;;;;6187962;28;20530;-74
2022/01/01 14:27:53;;;;;;;14.90;4.80;;;15.60;49.80;;;;;;6181705;28;20151;-74
2022/01/01 14:30:56;;;;;;;12.68;4.70;;;15.70;49.90;;;;;;6183388;28;20096;-76
2022/01/01 14:33:58;;;;;;;11.13;3.75;;;15.70;50.00;;;;;;6174794;28;20144;-75
2022/01/01 14:36:59;;;;;;;11.25;4.10;;;15.70;50.10;;;;;;6149202;28;20173;-74
2022/01/01 14:40:00;;;;;;;14.98;3.95;;;15.70;50.20;;;;;;6154165;28;20058;-77
2022/01/01 14:43:02;;;;;;;24.20;4.57;;;15.70;50.30;;;;;;6142333;28;20046;-76
2022/01/01 14:46:06;;;;;;;17.45;8.00;;;15.70;50.30;;;;;;6152879;28;20034;-75
2022/01/01 14:49:32;;;;;;;17.92;6.63;;;15.80;50.30;;;;;;6141114;28;20076;-75
2022/01/01 14:52:52;;;;;;;11.65;4.68;;;15.80;50.40;;;;;;6179627;28;20064;-75
2022/01/01 14:56:02;;;;;;;30.38;11.40;;;15.80;50.40;;;;;;6161256;28;20051;-75
2022/01/01 14:59:06;;;;;;;34.40;13.48;;;15.70;50.40;;;;;;6170789;28;20755;-76
2022/01/01 15:02:08;;;;;;;42.50;16.95;;;15.70;50.50;;;;;;6188307;28;20074;-75
2022/01/01 15:05:10;;;;;;;23.65;10.82;;;15.80;50.50;;;;;;6175258;28;20040;-75
2022/01/01 15:08:16;;;;;;;36.40;16.05;;;15.80;50.60;;;;;;6174838;28;20677;-76
2022/01/01 15:11:18;;;;;;;9.43;4.80;;;15.70;50.50;;;;;;6173498;28;20037;-75
2022/01/01 15:14:23;;;;;;;11.57;3.97;;;15.70;50.50;;;;;;6167199;28;20095;-75
2022/01/01 15:17:25;;;;;;;8.00;3.47;;;15.70;50.40;;;;;;6168547;28;20036;-75
2022/01/01 15:20:26;;;;;;;7.30;3.35;;;15.70;50.60;;;;;;6173633;28;21118;-75
2022/01/01 15:23:38;;;;;;;21.73;6.10;;;15.70;51.10;;;;;;6163595;28;20064;-76
2022/01/01 15:26:41;;;;;;;20.83;9.32;;;15.70;50.40;;;;;;6141876;28;21104;-75
2022/01/01 15:36:23;;;;;;;7.78;3.47;;;15.60;50.00;;;;;;6174706;28;20049;-76
2022/01/01 15:39:26;;;;;;;7.45;3.90;;;15.50;49.90;;;;;;6178640;28;20090;-76
2022/01/01 15:42:28;;;;;;;9.50;4.30;;;15.50;50.00;;;;;;6187125;28;20033;-75
2022/01/01 15:45:29;;;;;;;7.75;3.75;;;15.50;50.10;;;;;;6189957;28;20159;-75
2022/01/01 15:48:30;;;;;;;6.32;3.33;;;15.40;50.10;;;;;;6167911;28;20134;-74
2022/01/01 15:51:33;;;;;;;11.15;5.05;;;15.40;50.10;;;;;;6182492;28;20809;-74
2022/01/01 15:54:35;;;;;;;10.20;4.38;;;15.40;50.20;;;;;;6180935;28;20068;-75